KLND/LND METAR and TAF weather

Enter ICAO airport designator
Station Type Date Time Source
KLND METAR 2021/04/17 02:53 UTC NOAA

KLND 170253Z AUTO 24005KT 10SM SCT016 BKN065 OVC080 M01/M02 A3027 RMK AO2 SNE26 SLP282 P0001 60002 T10061017 51014


Station Type Date Time Source
KLND Decoded METAR 2021/04/17 02:53 UTC NOAA

LANDER HUNT FIELD, WY, United States (KLND) 42-49N 108-44W 1694M
Apr 16, 2021 - 10:53 PM EDT / 2021.04.17 0253 UTC
Wind: from the WSW (240 degrees) at 6 MPH (5 KT):0
Visibility: 10 mile(s):0
Sky conditions: overcast
Precipitation last hour: 0.01 inches
Temperature: 30.9 F (-0.6 C)
Windchill: 24 F (-4 C):1
Dew Point: 28.9 F (-1.7 C)
Relative Humidity: 92%
Pressure (altimeter): 30.27 in. Hg (1025 hPa)
Pressure tendency: 0.04 inches (1.4 hPa) higher than three hours ago
ob: KLND 170253Z AUTO 24005KT 10SM SCT016 BKN065 OVC080 M01/M02 A3027 RMK AO2 SNE26 SLP282 P0001 60002 T10061017 51014
cycle: 3

Station Type Date Time Source
KLND TAF 2021/04/16 23:45 UTC NOAA

TAF
AMD KLND 162242Z 1623/1718 VRB04KT P6SM VCSH OVC040
TEMPO 1623/1701 3SM -SN BKN030
FM170300 VRB04KT P6SM BKN050
FM171300 VRB04KT P6SM SKC

Example: see airport list